Angel Albino Corzo International Airport
MMTG : now visible

Airfield :











YOU CAN JOIN US ON...

 
LOGIN :

Register | Disclaimer

   EN    FR    IT 

 









Legend :    VFR   Marginal VFR   IFR   Intensive IFR   Very Intensive IFR
Visi :
Ceiling :
>= 8 km
>= 3000ft
5 to 8 km
1000 to 3000 ft
1500m to 5 km
500 to 1000 ft
800 to 1500m
200 to 500 ft
< 800m
< 200 ft
Symbols :   Thunderstorms  Fog  Heavy snow  Heavy precipitations  Wind > 20 kt






- Airport Elevation : 1499 ft


MMTG - Angel Albino Corzo International

CURRENT METAR :
  • 061645Z 11005KT 7SM FEW020 27/18 A3010 RMK 8/100 HZY

EXPIRED METARs :
  • 061540Z 03003KT 6SM FEW020 25/19 A3012 RMK 8/500 HZY
  • 061449Z 15003KT 5SM FEW010 23/19 A3014 RMK SLP176 52011 905 8/600 HZY

TAF TAF MMTG
Valid from the 06 at 18:00 until the 07 at 18:00 UTC


061656Z 0618/0718 34015KT P6SM BKN020
BECMG 0701/0702 00000KT
FM071000 00000KT 3SM BR OVC010
FM071600 29010KT 4SM HZ SCT015



MET'MAP, your aeronautical weather chart ! - Copyright ORBIFLY December 2007 - Disclaimer

ORBIFLY MET'MAP TEAM :

Programming & Development : Alexandra Zaïnal
Concept & original design : Baudouin d'Aumeries
Assistance for programming : Marc-Olivier Méhu
Technical & hardware support : Manuel Goepfert

Contact : metmap@orbifly.com




SOURCES & CREDITS :

   NOAA       Earth
Advisory